الصفحة الرئيسية
METAR-TAF:

METAR-TAF

مطار :

Taos Regional Airport

Taos, نيومكسيكو, الولايات المتحدة

دائرة عرض: 36-27N, خط طول: 105-40W, ارتفاع: 2161 متر

مراقبة الطقس الحالي

تاريخ ووقت الإصدار 21 دقيقة قبل الساعة 12:56UTC
ريح 7 عقدة من الشمال/الشمال الشرقي
درجة الحرارة -18°درجة مئوية
الرطوبة 92%
ضغط 1022 hPa
الرؤية: 16.1 كم
سماء صافية

METAR: KSKX 231256Z AUTO 03007KT 10SM CLR M18/M19 A3019 RMK AO2 SLP317 T11781194 FZRANO $

زمن: 06:17 (13:17 UTC)


TAF: مفقودة

أرصاد الطقس والتوقعات من أكثر من 4000 مطار (تقارير الطقس للمطار METAR والتنبؤ بالطقس بالمطارTAF).

المحطات المتاحة هي النقط الصفراء والحمراء على الخريطة.

حرك المؤشر فوق النقطة لمعرفة اسم المحطة.

ثم انقر لمعرفة أرصاد وتوقعات الطقس.

لتغيير الخارطة: اضغط على الأزرار الخضراء مع رمز الصليب الأسود للتكبير. على الزر الأخضر مع شرطة للتصغير، أو على الأسهم الخضراء للخرائط المجاورة.


METAR-TAF: